Time;durP1;ratioP1;P1;durP2;ratioP2;P2;SDS_P1;SDS_P2;PMS_P1;PMS_P2;Temp;Humidity;BMP_temperature;BMP_pressure;BME280_temperature;BME280_humidity;BME280_pressure;Samples;Min_cycle;Max_cycle;Signal;HPM_P1;HPM_P2
2024/01/21 00:00:36;;;;;;;31.87;19.50;;;-3.70;99.90;;;;;;958472;148;27243;-82
2024/01/21 00:03:04;;;;;;;29.80;18.63;;;-3.70;99.90;;;;;;954101;148;27259;-82
2024/01/21 00:05:29;;;;;;;28.40;18.60;;;-3.80;99.90;;;;;;961493;148;27371;-82
2024/01/21 00:07:56;;;;;;;29.20;17.93;;;-3.80;99.90;;;;;;958285;147;27357;-82
2024/01/21 00:10:23;;;;;;;30.50;19.20;;;-3.80;99.90;;;;;;957307;147;27336;-83
2024/01/21 00:12:49;;;;;;;34.60;20.37;;;-3.80;99.90;;;;;;958228;148;27336;-82
2024/01/21 00:15:16;;;;;;;30.57;19.07;;;-3.80;99.90;;;;;;958936;147;27313;-82
2024/01/21 00:17:42;;;;;;;30.27;18.10;;;-3.80;99.90;;;;;;958909;147;27315;-82
2024/01/21 00:20:09;;;;;;;32.20;18.70;;;-3.80;99.90;;;;;;957879;147;27494;-82
2024/01/21 00:22:35;;;;;;;29.97;17.63;;;-3.80;99.90;;;;;;958090;147;27250;-81
2024/01/21 00:25:02;;;;;;;28.83;18.33;;;-3.80;99.90;;;;;;963263;148;27343;-81
2024/01/21 00:27:29;;;;;;;29.17;16.97;;;-3.80;99.90;;;;;;961036;147;27321;-81
2024/01/21 00:29:55;;;;;;;35.80;18.70;;;-3.80;99.90;;;;;;959610;147;27310;-81
2024/01/21 00:32:22;;;;;;;31.67;18.33;;;-3.80;99.90;;;;;;958997;148;27349;-81
2024/01/21 00:34:48;;;;;;;29.77;18.43;;;-3.80;99.90;;;;;;960648;147;27256;-81
2024/01/21 00:37:15;;;;;;;26.20;17.97;;;-3.70;99.90;;;;;;956605;148;27335;-81
2024/01/21 00:39:42;;;;;;;27.53;17.07;;;-3.70;99.90;;;;;;958912;147;27351;-81
2024/01/21 00:42:08;;;;;;;30.60;17.93;;;-3.70;99.90;;;;;;961716;148;27343;-81
2024/01/21 00:44:35;;;;;;;29.03;18.17;;;-3.60;99.90;;;;;;958151;148;27266;-83
2024/01/21 00:47:01;;;;;;;28.60;17.77;;;-3.60;99.90;;;;;;960086;148;27643;-83
2024/01/21 00:49:29;;;;;;;30.63;18.43;;;-3.50;99.90;;;;;;958169;146;27909;-82
2024/01/21 00:51:55;;;;;;;32.37;18.40;;;-3.50;99.90;;;;;;958330;147;27460;-83
2024/01/21 00:54:21;;;;;;;27.23;17.43;;;-3.50;99.90;;;;;;960650;147;27276;-83
2024/01/21 00:56:48;;;;;;;23.07;15.47;;;-3.40;99.90;;;;;;956364;147;27296;-83
2024/01/21 00:59:14;;;;;;;28.87;17.20;;;-3.40;99.90;;;;;;961550;146;27303;-83
2024/01/21 01:01:41;;;;;;;28.27;17.20;;;-3.40;99.90;;;;;;959541;146;27398;-82
2024/01/21 01:04:08;;;;;;;28.33;16.60;;;-3.40;99.90;;;;;;953479;147;27278;-83
2024/01/21 01:06:34;;;;;;;31.47;18.27;;;-3.30;99.90;;;;;;958194;148;27231;-82
2024/01/21 01:09:01;;;;;;;26.30;17.40;;;-3.30;99.90;;;;;;957613;145;27375;-83
2024/01/21 01:11:27;;;;;;;27.37;17.57;;;-3.30;99.90;;;;;;956816;146;27326;-83
2024/01/21 01:13:54;;;;;;;31.27;18.17;;;-3.30;99.90;;;;;;957881;148;27299;-83
2024/01/21 01:16:20;;;;;;;29.27;17.20;;;-3.30;99.90;;;;;;956959;148;27816;-83
2024/01/21 01:18:47;;;;;;;28.83;17.67;;;-3.30;99.90;;;;;;960185;147;27374;-83
2024/01/21 01:21:14;;;;;;;31.73;18.63;;;-3.30;99.90;;;;;;956735;148;27355;-83
2024/01/21 01:23:40;;;;;;;29.00;18.03;;;-3.30;99.90;;;;;;956009;147;27391;-83
2024/01/21 01:26:07;;;;;;;27.70;17.37;;;-3.30;99.90;;;;;;958567;147;27384;-82
2024/01/21 01:28:33;;;;;;;26.27;17.30;;;-3.40;99.90;;;;;;959066;147;27287;-83
2024/01/21 01:31:00;;;;;;;28.27;17.80;;;-3.40;99.90;;;;;;961236;148;27355;-82
2024/01/21 01:33:27;;;;;;;24.83;16.33;;;-3.40;99.90;;;;;;959219;147;27427;-83
2024/01/21 01:35:53;;;;;;;24.80;16.70;;;-3.40;99.90;;;;;;960546;146;27406;-83
2024/01/21 01:38:20;;;;;;;29.10;18.33;;;-3.50;99.90;;;;;;959312;148;27347;-83
2024/01/21 01:40:46;;;;;;;28.97;18.13;;;-3.50;99.90;;;;;;959995;148;27334;-83
2024/01/21 01:43:13;;;;;;;31.80;19.63;;;-3.50;99.90;;;;;;958193;148;27347;-83
2024/01/21 01:45:40;;;;;;;29.13;17.47;;;-3.50;99.90;;;;;;960834;148;27867;-83
2024/01/21 01:48:07;;;;;;;30.67;18.50;;;-3.60;99.90;;;;;;958290;148;27412;-82
2024/01/21 01:50:33;;;;;;;33.20;19.27;;;-3.60;99.90;;;;;;960601;147;27357;-83
2024/01/21 01:52:59;;;;;;;35.60;20.07;;;-3.60;99.90;;;;;;959986;148;27347;-83
2024/01/21 01:55:26;;;;;;;30.57;17.43;;;-3.60;99.90;;;;;;960220;148;27371;-82
2024/01/21 01:57:53;;;;;;;33.77;18.87;;;-3.60;99.90;;;;;;959918;146;27255;-82
2024/01/21 02:00:19;;;;;;;32.93;18.97;;;-3.60;99.90;;;;;;959933;147;27381;-82
2024/01/21 02:02:46;;;;;;;34.63;19.97;;;-3.60;99.90;;;;;;960225;148;27343;-82
2024/01/21 02:05:12;;;;;;;28.53;18.20;;;-3.60;99.90;;;;;;959860;147;28592;-82
2024/01/21 02:07:39;;;;;;;31.10;17.27;;;-3.70;99.90;;;;;;956325;147;27345;-82
2024/01/21 02:10:06;;;;;;;28.43;17.70;;;-3.70;99.90;;;;;;960869;145;27808;-81
2024/01/21 02:12:32;;;;;;;30.67;17.03;;;-3.70;99.90;;;;;;957707;147;27327;-82
2024/01/21 02:14:59;;;;;;;27.60;16.30;;;-3.70;99.90;;;;;;962147;146;27337;-82
2024/01/21 02:17:25;;;;;;;30.57;17.73;;;-3.70;99.90;;;;;;960193;146;27325;-82
2024/01/21 02:19:52;;;;;;;32.47;18.43;;;-3.70;99.90;;;;;;958119;148;27363;-82
2024/01/21 02:22:19;;;;;;;31.30;16.67;;;-3.70;99.90;;;;;;958226;147;27341;-82
2024/01/21 02:24:45;;;;;;;27.30;17.17;;;-3.70;99.90;;;;;;956152;146;27379;-82
2024/01/21 02:27:12;;;;;;;28.63;17.63;;;-3.80;99.90;;;;;;959925;148;27324;-82
2024/01/21 02:29:38;;;;;;;28.03;17.43;;;-3.80;99.90;;;;;;959003;148;27313;-81
2024/01/21 02:32:06;;;;;;;24.67;15.77;;;-3.80;99.90;;;;;;960608;146;27283;-81
2024/01/21 02:34:33;;;;;;;30.47;18.50;;;-3.80;99.90;;;;;;960433;147;27330;-82
2024/01/21 02:36:59;;;;;;;25.80;16.90;;;-3.90;99.90;;;;;;961768;148;27280;-82
2024/01/21 02:39:26;;;;;;;26.53;17.10;;;-3.90;99.90;;;;;;958729;148;27366;-81
2024/01/21 02:41:53;;;;;;;24.87;16.50;;;-3.90;99.90;;;;;;959473;147;27430;-81
2024/01/21 02:44:19;;;;;;;24.43;16.67;;;-3.90;99.90;;;;;;958599;148;27231;-81
2024/01/21 02:46:46;;;;;;;24.47;15.50;;;-4.00;99.90;;;;;;958307;146;27395;-81
2024/01/21 02:49:12;;;;;;;27.03;16.07;;;-4.00;99.90;;;;;;954087;147;27352;-81
2024/01/21 02:51:39;;;;;;;25.47;15.10;;;-4.00;99.90;;;;;;954627;147;27342;-81
2024/01/21 02:54:06;;;;;;;25.07;14.90;;;-4.00;99.90;;;;;;954872;148;27259;-82
2024/01/21 02:56:32;;;;;;;25.10;15.60;;;-4.00;99.90;;;;;;961971;146;27304;-82
2024/01/21 02:58:59;;;;;;;24.63;15.13;;;-4.00;99.90;;;;;;960734;147;27263;-82
2024/01/21 03:01:25;;;;;;;23.20;14.90;;;-4.00;99.90;;;;;;960512;147;27395;-82
2024/01/21 03:03:52;;;;;;;20.50;13.57;;;-4.00;99.90;;;;;;959009;147;27332;-81
2024/01/21 03:06:19;;;;;;;22.07;15.13;;;-4.00;99.90;;;;;;956697;146;27406;-82
2024/01/21 03:08:45;;;;;;;20.33;13.97;;;-4.00;99.90;;;;;;957678;148;27326;-82
2024/01/21 03:11:12;;;;;;;23.33;15.13;;;-4.00;99.90;;;;;;959661;146;27359;-82
2024/01/21 03:13:38;;;;;;;28.90;16.13;;;-4.00;99.90;;;;;;960761;147;28047;-81
2024/01/21 03:16:05;;;;;;;22.77;15.30;;;-3.90;99.90;;;;;;960403;148;27258;-82
2024/01/21 03:18:32;;;;;;;21.77;15.23;;;-3.90;99.90;;;;;;961645;148;27241;-82
2024/01/21 03:20:58;;;;;;;23.80;15.23;;;-3.90;99.90;;;;;;958825;147;27280;-82
2024/01/21 03:23:25;;;;;;;23.80;14.97;;;-3.90;99.90;;;;;;957275;147;27309;-82
2024/01/21 03:25:51;;;;;;;23.90;15.70;;;-3.80;99.90;;;;;;958399;148;27269;-82
2024/01/21 03:28:18;;;;;;;25.27;15.97;;;-3.90;99.90;;;;;;957117;147;27438;-82
2024/01/21 03:30:44;;;;;;;23.03;15.17;;;-3.90;99.90;;;;;;963007;146;27676;-82
2024/01/21 03:33:11;;;;;;;26.17;15.87;;;-3.90;99.90;;;;;;964643;146;27342;-82
2024/01/21 03:35:38;;;;;;;26.67;15.60;;;-3.90;99.90;;;;;;962044;146;27366;-82
2024/01/21 03:38:04;;;;;;;31.63;15.43;;;-3.90;99.90;;;;;;958875;147;27297;-82
2024/01/21 03:40:31;;;;;;;25.20;15.20;;;-3.90;99.90;;;;;;960367;147;27377;-82
2024/01/21 03:42:57;;;;;;;27.00;16.20;;;-3.90;99.90;;;;;;957091;147;27311;-82
2024/01/21 03:45:24;;;;;;;23.73;14.93;;;-3.90;99.90;;;;;;958124;148;27326;-82
2024/01/21 03:47:51;;;;;;;27.20;16.53;;;-4.00;99.90;;;;;;957657;147;27313;-81
2024/01/21 03:50:20;;;;;;;21.90;14.37;;;-4.00;99.90;;;;;;958855;146;27412;-81
2024/01/21 03:52:44;;;;;;;26.87;16.83;;;-4.00;99.90;;;;;;957963;148;27307;-82
2024/01/21 03:55:10;;;;;;;25.50;16.83;;;-4.00;99.90;;;;;;954943;148;27334;-82
2024/01/21 03:57:37;;;;;;;26.73;15.90;;;-4.00;99.90;;;;;;955278;148;27266;-81
2024/01/21 04:00:04;;;;;;;22.20;13.77;;;-4.00;99.90;;;;;;953365;148;27364;-81
2024/01/21 04:02:30;;;;;;;30.23;17.20;;;-4.00;99.90;;;;;;958454;148;27306;-81
2024/01/21 04:04:57;;;;;;;25.80;15.20;;;-4.00;99.90;;;;;;956901;148;27383;-81
2024/01/21 04:07:23;;;;;;;23.67;15.67;;;-4.00;99.90;;;;;;953218;148;27310;-81
2024/01/21 04:09:50;;;;;;;25.33;15.13;;;-4.00;99.90;;;;;;955933;148;27433;-81
2024/01/21 04:12:17;;;;;;;21.47;14.20;;;-4.00;99.90;;;;;;954364;148;27355;-82
2024/01/21 04:14:43;;;;;;;25.53;15.40;;;-4.00;99.90;;;;;;954885;148;27383;-82
2024/01/21 04:17:10;;;;;;;22.50;15.07;;;-4.00;99.90;;;;;;955917;148;27392;-81
2024/01/21 04:19:36;;;;;;;21.90;14.20;;;-3.90;99.90;;;;;;957974;148;27231;-82
2024/01/21 04:22:03;;;;;;;25.67;16.17;;;-3.90;99.90;;;;;;956301;148;27377;-82
2024/01/21 04:24:30;;;;;;;25.73;15.23;;;-3.90;99.90;;;;;;955785;148;27311;-82
2024/01/21 04:26:56;;;;;;;23.83;15.77;;;-3.90;99.90;;;;;;955425;148;27344;-81
2024/01/21 04:29:23;;;;;;;23.50;14.43;;;-3.80;99.90;;;;;;956382;148;27306;-82
2024/01/21 04:31:49;;;;;;;19.17;13.07;;;-3.80;99.90;;;;;;956390;148;27369;-82
2024/01/21 04:34:16;;;;;;;26.13;15.97;;;-3.80;99.90;;;;;;955817;148;27623;-81
2024/01/21 04:36:43;;;;;;;24.77;15.83;;;-3.80;99.90;;;;;;958171;148;27331;-81
2024/01/21 04:39:09;;;;;;;26.23;15.37;;;-3.70;99.90;;;;;;957341;148;28302;-82
2024/01/21 04:41:36;;;;;;;25.23;15.43;;;-3.70;99.90;;;;;;955829;148;27295;-81
2024/01/21 04:44:03;;;;;;;23.77;14.77;;;-3.70;99.90;;;;;;956734;148;27336;-82
2024/01/21 04:46:29;;;;;;;21.40;13.70;;;-3.70;99.90;;;;;;956516;148;27447;-81
2024/01/21 04:48:55;;;;;;;23.80;15.00;;;-3.70;99.90;;;;;;958916;147;27327;-81
2024/01/21 04:51:22;;;;;;;25.03;15.00;;;-3.60;99.90;;;;;;954471;147;27312;-82
2024/01/21 04:53:49;;;;;;;23.77;14.63;;;-3.60;99.90;;;;;;962582;146;27298;-82
2024/01/21 04:56:15;;;;;;;22.30;14.00;;;-3.60;99.90;;;;;;963187;146;27300;-82
2024/01/21 04:58:42;;;;;;;20.43;14.13;;;-3.60;99.90;;;;;;964417;147;27313;-82
2024/01/21 05:01:08;;;;;;;22.10;13.93;;;-3.50;99.90;;;;;;963945;146;27414;-83
2024/01/21 05:03:35;;;;;;;24.60;14.93;;;-3.60;99.90;;;;;;963225;146;27254;-83
2024/01/21 05:06:02;;;;;;;22.63;15.20;;;-3.50;99.90;;;;;;960477;148;27312;-82
2024/01/21 05:08:28;;;;;;;21.13;13.77;;;-3.50;99.90;;;;;;957179;147;27383;-82
2024/01/21 05:10:55;;;;;;;21.83;14.63;;;-3.40;99.90;;;;;;957385;147;27353;-83
2024/01/21 05:13:21;;;;;;;21.50;14.33;;;-3.40;99.90;;;;;;957872;148;27259;-83
2024/01/21 05:15:48;;;;;;;22.57;14.30;;;-3.40;99.90;;;;;;958466;148;27332;-82
2024/01/21 05:18:14;;;;;;;22.87;14.33;;;-3.30;99.90;;;;;;959927;148;27410;-82
2024/01/21 05:20:41;;;;;;;28.50;14.43;;;-3.30;99.90;;;;;;957542;147;27322;-81
2024/01/21 05:23:08;;;;;;;19.40;14.20;;;-3.30;99.90;;;;;;957988;147;27298;-82
2024/01/21 05:25:34;;;;;;;23.50;14.80;;;-3.30;99.90;;;;;;959665;146;27411;-82
2024/01/21 05:28:01;;;;;;;23.40;14.30;;;-3.30;99.90;;;;;;960043;148;27377;-82
2024/01/21 05:30:27;;;;;;;28.07;14.80;;;-3.30;99.90;;;;;;958700;148;28308;-82
2024/01/21 05:32:54;;;;;;;23.00;15.37;;;-3.30;99.90;;;;;;959086;147;27349;-82
2024/01/21 05:35:22;;;;;;;24.00;15.90;;;-3.30;99.90;;;;;;956105;148;27322;-82
2024/01/21 05:37:47;;;;;;;23.67;16.40;;;-3.30;99.60;;;;;;957245;148;27356;-82
2024/01/21 05:40:14;;;;;;;25.50;15.30;;;-3.40;99.10;;;;;;961211;148;27422;-82
2024/01/21 05:42:40;;;;;;;25.47;16.23;;;-3.40;98.70;;;;;;958883;148;27351;-82
2024/01/21 05:45:07;;;;;;;30.63;17.20;;;-3.50;98.40;;;;;;956785;148;27307;-82
2024/01/21 05:47:34;;;;;;;27.40;17.17;;;-3.50;98.30;;;;;;958573;148;27749;-82
2024/01/21 05:50:00;;;;;;;26.47;16.37;;;-3.60;98.10;;;;;;958087;148;27420;-81
2024/01/21 05:52:27;;;;;;;25.00;16.33;;;-3.70;98.00;;;;;;959727;147;27331;-82
2024/01/21 05:54:53;;;;;;;22.97;15.30;;;-3.70;97.90;;;;;;963836;147;27299;-82
2024/01/21 05:57:20;;;;;;;28.37;15.93;;;-3.80;97.90;;;;;;969188;146;27738;-82
2024/01/21 05:59:47;;;;;;;21.00;14.87;;;-3.80;98.00;;;;;;966925;147;27305;-83
2024/01/21 06:02:14;;;;;;;30.13;16.00;;;-3.90;98.00;;;;;;965948;146;27427;-82
2024/01/21 06:04:40;;;;;;;24.07;15.70;;;-3.90;98.10;;;;;;965175;147;27888;-82
2024/01/21 06:07:06;;;;;;;24.13;14.97;;;-4.00;98.20;;;;;;967806;147;27293;-82
2024/01/21 06:09:33;;;;;;;23.57;14.53;;;-4.00;98.30;;;;;;967310;145;27370;-82
2024/01/21 06:11:59;;;;;;;24.93;14.93;;;-4.10;98.50;;;;;;967243;147;27430;-83
2024/01/21 06:14:26;;;;;;;25.30;14.83;;;-4.10;98.70;;;;;;964740;147;27439;-82
2024/01/21 06:16:53;;;;;;;24.90;15.97;;;-4.10;98.80;;;;;;964336;147;27294;-83
2024/01/21 06:19:19;;;;;;;28.83;16.77;;;-4.10;98.80;;;;;;964608;147;27388;-83
2024/01/21 06:21:46;;;;;;;25.80;16.10;;;-4.10;98.70;;;;;;965630;147;27768;-83
2024/01/21 06:24:13;;;;;;;26.97;15.80;;;-4.20;98.50;;;;;;965213;147;27317;-82
2024/01/21 06:26:40;;;;;;;30.00;17.03;;;-4.20;98.40;;;;;;968225;147;27335;-81
2024/01/21 06:29:06;;;;;;;28.60;16.17;;;-4.20;98.40;;;;;;966587;147;27305;-82
2024/01/21 06:31:32;;;;;;;27.07;16.37;;;-4.20;98.50;;;;;;965596;147;27415;-82
2024/01/21 06:33:59;;;;;;;33.57;18.87;;;-4.30;98.40;;;;;;962536;146;27761;-81
2024/01/21 06:36:25;;;;;;;34.03;18.73;;;-4.30;98.40;;;;;;965933;147;27489;-82
2024/01/21 06:38:52;;;;;;;33.47;18.60;;;-4.30;98.40;;;;;;965102;147;27255;-82
2024/01/21 06:41:19;;;;;;;34.40;18.13;;;-4.40;98.40;;;;;;965069;147;27343;-82
2024/01/21 06:43:45;;;;;;;30.87;17.37;;;-4.40;98.50;;;;;;964911;147;27330;-82
2024/01/21 06:46:12;;;;;;;36.77;18.80;;;-4.40;98.70;;;;;;965412;147;27301;-82
2024/01/21 06:48:38;;;;;;;29.80;17.73;;;-4.40;99.00;;;;;;968860;144;27273;-81
2024/01/21 06:51:10;;;;;;;30.93;17.37;;;-4.40;99.20;;;;;;967962;147;27283;-82
2024/01/21 06:53:32;;;;;;;31.40;17.50;;;-4.40;99.40;;;;;;968193;144;27370;-82
2024/01/21 06:56:04;;;;;;;29.87;17.17;;;-4.40;99.50;;;;;;960364;148;27338;-81
2024/01/21 06:58:25;;;;;;;28.57;16.43;;;-4.40;99.80;;;;;;961032;148;27288;-82
2024/01/21 07:00:51;;;;;;;33.30;17.37;;;-4.30;99.90;;;;;;959283;148;27321;-82
2024/01/21 07:03:19;;;;;;;34.37;17.30;;;-4.30;99.90;;;;;;959412;147;27367;-82
2024/01/21 07:05:44;;;;;;;34.87;17.57;;;-4.20;99.90;;;;;;959213;148;27352;-82
2024/01/21 07:08:11;;;;;;;30.60;18.20;;;-4.20;99.90;;;;;;960186;147;27298;-82
2024/01/21 07:10:38;;;;;;;30.50;15.93;;;-4.20;99.90;;;;;;961214;148;27299;-82
2024/01/21 07:13:04;;;;;;;30.83;16.37;;;-4.10;99.90;;;;;;958884;147;27301;-82
2024/01/21 07:15:31;;;;;;;35.50;17.33;;;-4.10;99.90;;;;;;959742;148;27375;-82
2024/01/21 07:17:57;;;;;;;33.03;17.40;;;-4.10;99.80;;;;;;959280;148;27309;-83
2024/01/21 07:20:24;;;;;;;31.77;17.97;;;-4.10;99.50;;;;;;955716;147;27244;-83
2024/01/21 07:22:51;;;;;;;33.00;16.97;;;-4.10;99.30;;;;;;960417;147;27391;-83
2024/01/21 07:25:17;;;;;;;34.43;18.43;;;-4.10;99.30;;;;;;960378;148;27349;-83
2024/01/21 07:27:44;;;;;;;33.03;16.93;;;-4.00;99.50;;;;;;959002;147;27443;-83
2024/01/21 07:30:10;;;;;;;37.10;18.07;;;-4.00;99.60;;;;;;959330;147;27370;-83
2024/01/21 07:32:37;;;;;;;30.87;16.67;;;-4.00;99.70;;;;;;958900;147;27318;-83
2024/01/21 07:35:04;;;;;;;34.47;18.93;;;-4.00;99.70;;;;;;957506;148;27296;-83
2024/01/21 07:37:30;;;;;;;35.10;18.00;;;-4.00;99.50;;;;;;956781;147;27544;-83
2024/01/21 07:39:57;;;;;;;31.17;16.77;;;-3.90;99.40;;;;;;958525;147;27342;-83
2024/01/21 07:42:23;;;;;;;32.43;17.13;;;-3.90;99.20;;;;;;959553;147;27283;-83
2024/01/21 07:44:50;;;;;;;31.23;18.03;;;-3.90;99.40;;;;;;958508;148;27396;-79
2024/01/21 07:47:17;;;;;;;29.40;15.90;;;-3.90;99.70;;;;;;957990;148;27358;-84
2024/01/21 07:49:43;;;;;;;28.27;16.27;;;-3.80;99.90;;;;;;958433;147;27284;-84
2024/01/21 07:52:10;;;;;;;26.77;15.53;;;-3.80;99.90;;;;;;959326;147;27319;-84
2024/01/21 07:54:36;;;;;;;28.83;16.50;;;-3.70;99.90;;;;;;958691;148;27417;-83
2024/01/21 07:57:03;;;;;;;29.70;17.53;;;-3.70;99.90;;;;;;958670;148;27486;-82
2024/01/21 07:59:29;;;;;;;28.07;16.33;;;-3.70;99.70;;;;;;959062;148;27351;-84
2024/01/21 08:01:56;;;;;;;29.77;16.90;;;-3.60;99.40;;;;;;959651;148;27379;-84
2024/01/21 08:04:23;;;;;;;29.83;15.87;;;-3.60;99.10;;;;;;961206;147;27364;-83
2024/01/21 08:06:49;;;;;;;27.63;16.37;;;-3.60;99.10;;;;;;961239;148;27366;-83
2024/01/21 08:09:16;;;;;;;27.37;16.10;;;-3.60;99.20;;;;;;957820;145;27379;-85
2024/01/21 08:11:42;;;;;;;28.10;16.00;;;-3.60;99.50;;;;;;960161;147;28515;-84
2024/01/21 08:14:09;;;;;;;28.70;16.20;;;-3.50;99.90;;;;;;958657;147;27412;-85
2024/01/21 08:16:36;;;;;;;27.87;16.33;;;-3.40;99.90;;;;;;957782;146;27337;-83
2024/01/21 08:19:03;;;;;;;25.80;16.43;;;-3.40;99.90;;;;;;956301;148;27398;-83
2024/01/21 08:21:29;;;;;;;26.07;15.83;;;-3.30;99.90;;;;;;962037;148;27350;-83
2024/01/21 08:23:55;;;;;;;25.93;14.77;;;-3.20;99.90;;;;;;958938;148;27357;-83
2024/01/21 08:26:22;;;;;;;23.20;14.63;;;-3.00;99.90;;;;;;957362;148;27347;-82
2024/01/21 08:28:49;;;;;;;23.57;14.27;;;-2.80;99.90;;;;;;958123;148;27257;-83
2024/01/21 08:31:16;;;;;;;24.07;15.57;;;-2.60;99.90;;;;;;958132;147;27876;-83
2024/01/21 08:33:42;;;;;;;22.77;14.47;;;-2.30;99.90;;;;;;960417;147;27354;-83
2024/01/21 08:36:08;;;;;;;23.03;14.67;;;-2.00;99.90;;;;;;960041;147;27868;-83
2024/01/21 08:38:35;;;;;;;23.70;14.50;;;-1.70;99.90;;;;;;961892;147;27259;-83
2024/01/21 08:41:02;;;;;;;24.53;13.73;;;-1.50;99.90;;;;;;961660;147;27407;-83
2024/01/21 08:43:28;;;;;;;22.07;13.93;;;-1.20;99.90;;;;;;957939;147;27373;-83
2024/01/21 08:45:55;;;;;;;20.20;14.07;;;-1.00;99.90;;;;;;958311;148;27243;-83
2024/01/21 08:48:21;;;;;;;20.43;14.33;;;-0.90;99.90;;;;;;961099;148;27383;-83
2024/01/21 08:50:48;;;;;;;21.90;15.13;;;-0.70;99.90;;;;;;960423;148;27360;-84
2024/01/21 08:53:14;;;;;;;22.73;15.10;;;-0.60;99.90;;;;;;960043;148;27443;-83
2024/01/21 08:55:41;;;;;;;19.33;14.13;;;-0.50;99.90;;;;;;961605;147;27313;-83
2024/01/21 08:58:08;;;;;;;30.70;19.13;;;-0.30;99.90;;;;;;964340;147;27288;-83
2024/01/21 09:00:34;;;;;;;26.43;16.67;;;-0.20;99.90;;;;;;965056;147;27353;-83
2024/01/21 09:03:02;;;;;;;21.50;15.10;;;-0.20;99.50;;;;;;965165;147;27819;-83
2024/01/21 09:05:28;;;;;;;19.50;13.43;;;-0.10;99.10;;;;;;964662;147;27358;-83
2024/01/21 09:07:54;;;;;;;21.27;14.20;;;0.00;98.90;;;;;;965800;146;27310;-83
2024/01/21 09:10:21;;;;;;;21.07;15.03;;;0.00;98.90;;;;;;965614;145;27446;-83
2024/01/21 09:12:47;;;;;;;25.10;15.50;;;0.10;99.00;;;;;;964090;147;27329;-83
2024/01/21 09:15:14;;;;;;;21.00;14.03;;;0.10;98.90;;;;;;962364;147;27270;-83
2024/01/21 09:17:41;;;;;;;21.10;12.93;;;0.20;98.60;;;;;;962233;147;27302;-83
2024/01/21 09:20:07;;;;;;;21.00;13.63;;;0.30;98.30;;;;;;964776;147;27732;-83
2024/01/21 09:22:34;;;;;;;19.30;14.33;;;0.30;98.00;;;;;;963406;147;27434;-83
2024/01/21 09:25:00;;;;;;;19.53;13.40;;;0.40;97.90;;;;;;966330;147;27267;-84
2024/01/21 09:27:27;;;;;;;20.37;12.97;;;0.40;97.90;;;;;;965470;147;27365;-83
2024/01/21 09:29:53;;;;;;;20.50;13.20;;;0.50;97.70;;;;;;963579;147;27434;-84
2024/01/21 09:32:20;;;;;;;20.67;13.50;;;0.50;97.80;;;;;;966216;147;27346;-82
2024/01/21 09:34:47;;;;;;;19.13;13.23;;;0.60;97.30;;;;;;964026;147;27353;-83
2024/01/21 09:37:13;;;;;;;23.37;13.90;;;0.60;97.10;;;;;;964231;147;27310;-80
2024/01/21 09:39:40;;;;;;;19.67;12.30;;;0.60;97.00;;;;;;961665;147;27740;-81
2024/01/21 09:42:09;;;;;;;20.50;13.53;;;0.70;96.90;;;;;;964135;147;27352;-81
2024/01/21 09:44:33;;;;;;;19.10;14.20;;;0.70;96.80;;;;;;962315;147;27312;-81
2024/01/21 09:46:59;;;;;;;19.97;12.77;;;0.80;96.80;;;;;;963545;147;27330;-81
2024/01/21 09:49:27;;;;;;;23.63;14.07;;;0.80;97.00;;;;;;964126;147;27262;-81
2024/01/21 09:51:53;;;;;;;20.97;13.60;;;0.80;97.10;;;;;;964657;145;27406;-81
2024/01/21 09:54:19;;;;;;;21.43;13.97;;;0.90;97.30;;;;;;965566;145;27414;-80
2024/01/21 09:56:46;;;;;;;22.03;13.73;;;1.00;97.30;;;;;;960868;147;27323;-83
2024/01/21 09:59:12;;;;;;;20.37;13.73;;;1.10;97.10;;;;;;964398;147;27395;-83
2024/01/21 10:01:40;;;;;;;19.13;13.63;;;1.10;96.90;;;;;;964165;147;27439;-83
2024/01/21 10:04:06;;;;;;;22.13;14.77;;;1.20;96.80;;;;;;963110;147;27411;-82
2024/01/21 10:06:32;;;;;;;23.40;14.67;;;1.20;96.70;;;;;;959647;147;27366;-83
2024/01/21 10:09:14;;;;;;;21.90;14.00;;;1.30;96.50;;;;;;959881;146;27364;-84
2024/01/21 10:11:41;;;;;;;22.70;13.67;;;1.30;96.40;;;;;;954474;147;27642;-83
2024/01/21 10:14:07;;;;;;;24.27;14.57;;;1.40;96.40;;;;;;955567;147;27319;-82
2024/01/21 10:16:34;;;;;;;24.63;14.40;;;1.40;96.40;;;;;;955266;148;27314;-83
2024/01/21 10:19:00;;;;;;;23.43;15.87;;;1.50;96.40;;;;;;955509;148;27348;-85
2024/01/21 10:21:27;;;;;;;24.00;15.10;;;1.50;96.00;;;;;;956163;148;27291;-85
2024/01/21 10:23:53;;;;;;;26.57;16.30;;;1.60;95.90;;;;;;956749;148;27247;-84
2024/01/21 10:26:20;;;;;;;27.90;17.37;;;1.60;96.10;;;;;;958777;148;27356;-86
2024/01/21 10:28:47;;;;;;;27.23;17.23;;;1.60;95.90;;;;;;956128;148;27365;-86
2024/01/21 10:31:13;;;;;;;28.00;17.03;;;1.70;95.70;;;;;;955446;147;27315;-86
2024/01/21 10:33:40;;;;;;;30.10;18.03;;;1.70;95.70;;;;;;958265;148;27280;-86
2024/01/21 10:36:06;;;;;;;27.43;17.17;;;1.70;95.40;;;;;;954742;148;27831;-82
2024/01/21 10:38:33;;;;;;;29.47;18.27;;;1.80;95.40;;;;;;957366;148;27866;-87
2024/01/21 10:41:02;;;;;;;32.30;18.90;;;1.80;95.40;;;;;;955756;148;27343;-86
2024/01/21 10:43:29;;;;;;;31.43;18.20;;;1.90;95.60;;;;;;955072;148;27348;-87
2024/01/21 10:45:57;;;;;;;28.73;17.57;;;1.90;95.70;;;;;;956507;148;27763;-83
2024/01/21 10:48:22;;;;;;;30.50;18.00;;;2.00;96.00;;;;;;954078;148;27442;-83
2024/01/21 10:50:50;;;;;;;30.97;19.13;;;2.00;95.70;;;;;;956713;148;27207;-83
2024/01/21 10:53:16;;;;;;;28.80;18.83;;;2.10;95.50;;;;;;956235;147;27284;-82
2024/01/21 10:55:42;;;;;;;30.43;18.30;;;2.10;95.30;;;;;;954965;148;27309;-82
2024/01/21 10:58:08;;;;;;;30.20;18.27;;;2.20;95.10;;;;;;956026;147;27489;-82
2024/01/21 11:00:38;;;;;;;28.67;16.97;;;2.20;95.10;;;;;;959702;148;27304;-82
2024/01/21 11:03:26;;;;;;;28.10;18.03;;;2.20;95.20;;;;;;960037;147;27227;-82
2024/01/21 11:05:52;;;;;;;30.33;17.40;;;2.30;95.50;;;;;;959520;148;27389;-85
2024/01/21 11:08:19;;;;;;;29.30;17.63;;;2.40;95.60;;;;;;958908;145;27397;-87
2024/01/21 11:10:45;;;;;;;31.20;18.47;;;2.40;95.50;;;;;;964959;147;27287;-88
2024/01/21 11:13:12;;;;;;;28.13;17.93;;;2.50;95.30;;;;;;961903;147;27276;-88
2024/01/21 11:15:38;;;;;;;30.67;18.03;;;2.50;94.90;;;;;;955415;148;27409;-87
2024/01/21 11:18:09;;;;;;;27.40;18.47;;;2.60;94.60;;;;;;960968;147;27435;-88
2024/01/21 11:20:35;;;;;;;27.90;17.77;;;2.60;94.10;;;;;;957997;148;27415;-89
2024/01/21 11:23:01;;;;;;;30.13;18.97;;;2.60;93.70;;;;;;958111;148;27380;-88
2024/01/21 11:25:34;;;;;;;31.50;18.60;;;2.60;93.40;;;;;;959647;147;27250;-87
2024/01/21 11:28:03;;;;;;;31.67;18.33;;;2.60;93.00;;;;;;961528;147;27411;-88
2024/01/21 11:30:27;;;;;;;31.93;19.23;;;2.60;92.70;;;;;;957423;146;27386;-86
2024/01/21 11:32:57;;;;;;;26.87;17.10;;;2.50;92.60;;;;;;958344;147;27323;-88
2024/01/21 11:35:20;;;;;;;28.80;17.80;;;2.50;92.80;;;;;;956559;148;27285;-87
2024/01/21 11:37:52;;;;;;;25.87;16.40;;;2.50;93.00;;;;;;955421;147;27287;-84
2024/01/21 11:40:13;;;;;;;27.67;16.43;;;2.40;93.00;;;;;;957663;146;27325;-88
2024/01/21 11:42:40;;;;;;;24.40;15.40;;;2.40;93.40;;;;;;958528;147;27347;-88
2024/01/21 11:45:07;;;;;;;21.40;14.23;;;2.40;93.60;;;;;;956055;147;27330;-88
2024/01/21 11:47:33;;;;;;;20.80;14.17;;;2.50;93.80;;;;;;956814;148;27320;-85
2024/01/21 11:50:02;;;;;;;23.30;14.43;;;2.50;94.00;;;;;;954925;146;27323;-89
2024/01/21 11:52:26;;;;;;;20.47;14.87;;;2.50;94.10;;;;;;958833;148;27500;-88
2024/01/21 11:54:53;;;;;;;19.93;14.37;;;2.50;94.10;;;;;;956605;148;27380;-87
2024/01/21 11:57:19;;;;;;;22.87;15.00;;;2.60;94.00;;;;;;958985;147;27452;-80
2024/01/21 11:59:46;;;;;;;18.40;14.00;;;2.60;94.00;;;;;;957920;147;27418;-80
2024/01/21 12:02:13;;;;;;;19.93;13.77;;;2.60;94.10;;;;;;956391;147;27436;-79
2024/01/21 12:04:39;;;;;;;19.00;13.13;;;2.60;94.40;;;;;;957355;148;27300;-80
2024/01/21 12:07:06;;;;;;;20.43;14.50;;;2.70;94.70;;;;;;957267;147;27388;-79
2024/01/21 12:09:33;;;;;;;18.93;13.83;;;2.70;95.00;;;;;;958574;148;27394;-84
2024/01/21 12:11:59;;;;;;;18.97;13.90;;;2.80;95.40;;;;;;957503;147;27337;-78
2024/01/21 12:14:26;;;;;;;21.77;14.60;;;2.90;95.60;;;;;;956883;148;27292;-79
2024/01/21 12:16:53;;;;;;;20.97;14.63;;;3.00;95.70;;;;;;958274;147;27293;-82
2024/01/21 12:19:19;;;;;;;20.30;14.37;;;3.10;95.90;;;;;;958054;148;27251;-82
2024/01/21 12:21:45;;;;;;;18.03;14.10;;;3.20;96.20;;;;;;959279;147;27341;-82
2024/01/21 12:24:12;;;;;;;19.90;13.77;;;3.40;96.50;;;;;;957004;148;27302;-82
2024/01/21 12:26:38;;;;;;;18.23;12.87;;;3.50;96.70;;;;;;957125;147;27432;-82